createdAt,value
2023-04-13T00:00:32.750Z,995.58
2023-04-13T00:01:32.742Z,995.62
2023-04-13T00:02:32.894Z,995.56
2023-04-13T00:03:32.915Z,995.56
2023-04-13T00:04:32.720Z,995.55
2023-04-13T00:05:32.737Z,995.53
2023-04-13T00:06:32.725Z,995.54
2023-04-13T00:07:32.716Z,995.56
2023-04-13T00:08:32.721Z,995.56
2023-04-13T00:09:32.721Z,995.63
2023-04-13T00:10:32.717Z,995.61
2023-04-13T00:11:32.714Z,995.60
2023-04-13T00:12:32.710Z,995.59
2023-04-13T00:13:32.709Z,995.65
2023-04-13T00:14:32.707Z,995.59
2023-04-13T00:15:32.707Z,995.59
2023-04-13T00:16:32.763Z,995.63
2023-04-13T00:17:32.789Z,995.68
2023-04-13T00:18:33.023Z,995.66
2023-04-13T00:19:32.996Z,995.67
2023-04-13T00:20:32.693Z,995.67
2023-04-13T00:21:32.695Z,995.72
2023-04-13T00:22:32.692Z,995.71
2023-04-13T00:23:32.689Z,995.69
2023-04-13T00:24:32.693Z,995.70
2023-04-13T00:25:32.688Z,995.62
2023-04-13T00:26:32.694Z,995.58
2023-04-13T00:27:32.683Z,995.53
2023-04-13T00:28:32.692Z,995.55
2023-04-13T00:29:32.681Z,995.48
2023-04-13T00:30:32.703Z,995.51
2023-04-13T00:31:32.732Z,995.55
2023-04-13T00:32:32.697Z,995.64
2023-04-13T00:33:32.670Z,995.66
2023-04-13T00:34:32.672Z,995.69
2023-04-13T00:35:32.672Z,995.70
2023-04-13T00:36:32.670Z,995.71
2023-04-13T00:37:32.674Z,995.75
2023-04-13T00:38:32.668Z,995.72
2023-04-13T00:39:32.660Z,995.67
2023-04-13T00:40:32.663Z,995.63
2023-04-13T00:41:32.656Z,995.67
2023-04-13T00:42:32.663Z,995.62
2023-04-13T00:43:32.656Z,995.65
2023-04-13T00:44:32.656Z,995.71
2023-04-13T00:45:32.648Z,995.72
2023-04-13T00:46:32.737Z,995.72
2023-04-13T00:47:32.667Z,995.80
2023-04-13T00:48:32.672Z,995.77
2023-04-13T00:49:32.646Z,995.79
2023-04-13T00:50:32.645Z,995.77
2023-04-13T00:51:32.648Z,995.77
2023-04-13T00:52:32.642Z,995.77
2023-04-13T00:53:32.645Z,995.85
2023-04-13T00:54:32.649Z,995.89
2023-04-13T00:55:32.635Z,995.91
2023-04-13T00:56:32.636Z,995.93
2023-04-13T00:57:32.635Z,995.93
2023-04-13T00:58:32.639Z,995.94
2023-04-13T00:59:32.629Z,995.93
2023-04-13T01:00:32.629Z,995.94
2023-04-13T01:01:32.683Z,995.93
2023-04-13T01:02:32.675Z,995.99
2023-04-13T01:03:32.703Z,996.01
2023-04-13T01:04:32.696Z,996.04
2023-04-13T01:05:32.630Z,996.04
2023-04-13T01:06:32.619Z,996.07
2023-04-13T01:07:32.618Z,996.05
2023-04-13T01:08:32.617Z,996.05
2023-04-13T01:09:32.609Z,996.06
2023-04-13T01:10:32.614Z,996.07
2023-04-13T01:11:32.610Z,996.11
2023-04-13T01:12:32.608Z,996.14
2023-04-13T01:13:32.607Z,996.15
2023-04-13T01:14:32.609Z,996.21
2023-04-13T01:15:32.650Z,996.20
2023-04-13T01:16:32.627Z,996.25
2023-04-13T01:17:32.620Z,996.25
2023-04-13T01:18:32.595Z,996.30
2023-04-13T01:19:32.594Z,996.33
2023-04-13T01:20:32.619Z,996.32
2023-04-13T01:21:32.586Z,996.41
2023-04-13T01:22:32.588Z,996.36
2023-04-13T01:23:32.580Z,996.40
2023-04-13T01:24:32.599Z,996.33
2023-04-13T01:25:32.577Z,996.41
2023-04-13T01:26:32.579Z,996.41
2023-04-13T01:27:32.579Z,996.45
2023-04-13T01:28:32.576Z,996.41
2023-04-13T01:29:32.578Z,996.51
2023-04-13T01:30:32.568Z,996.56
2023-04-13T01:31:32.623Z,996.59
2023-04-13T01:32:32.598Z,996.63
2023-04-13T01:33:32.568Z,996.63
2023-04-13T01:34:32.573Z,996.63
2023-04-13T01:35:32.581Z,996.60
2023-04-13T01:36:32.636Z,996.71
2023-04-13T01:37:32.554Z,996.74
2023-04-13T01:38:32.559Z,996.80
2023-04-13T01:39:32.553Z,996.86
2023-04-13T01:40:32.555Z,996.84
2023-04-13T01:41:32.554Z,996.85
2023-04-13T01:42:32.561Z,996.84
2023-04-13T01:43:32.549Z,996.81
2023-04-13T01:44:32.546Z,996.81
2023-04-13T01:45:32.604Z,996.80
2023-04-13T01:46:32.572Z,996.82
2023-04-13T01:47:32.559Z,996.86
2023-04-13T01:48:32.539Z,996.91
2023-04-13T01:49:32.534Z,996.99
2023-04-13T01:50:32.544Z,996.96
2023-04-13T01:51:32.533Z,997.03
2023-04-13T01:52:32.550Z,997.05
2023-04-13T01:53:32.533Z,997.05
2023-04-13T01:54:32.526Z,997.07
2023-04-13T01:55:32.523Z,997.04
2023-04-13T01:56:32.532Z,997.02
2023-04-13T01:57:32.520Z,997.04
2023-04-13T01:58:32.524Z,997.02
2023-04-13T01:59:32.514Z,996.99
2023-04-13T02:00:32.549Z,997.02
2023-04-13T02:01:32.513Z,997.04
2023-04-13T02:02:32.585Z,997.07
2023-04-13T02:03:32.686Z,997.09
2023-04-13T02:04:32.507Z,997.10
2023-04-13T02:05:32.509Z,997.13
2023-04-13T02:06:32.508Z,997.15
2023-04-13T02:07:32.517Z,997.15
2023-04-13T02:08:33.550Z,997.14
2023-04-13T02:09:32.497Z,997.14
2023-04-13T02:10:32.499Z,997.26
2023-04-13T02:11:32.501Z,997.25
2023-04-13T02:12:32.492Z,997.26
2023-04-13T02:13:32.499Z,997.29
2023-04-13T02:14:32.493Z,997.28
2023-04-13T02:15:32.482Z,997.28
2023-04-13T02:16:32.551Z,997.31
2023-04-13T02:17:32.530Z,997.30
2023-04-13T02:18:32.481Z,997.28
2023-04-13T02:19:32.481Z,997.28
2023-04-13T02:20:32.476Z,997.28
2023-04-13T02:21:32.481Z,997.31
2023-04-13T02:22:32.474Z,997.29
2023-04-13T02:23:32.480Z,997.32
2023-04-13T02:24:32.495Z,997.35
2023-04-13T02:25:32.472Z,997.33
2023-04-13T02:26:32.462Z,997.31
2023-04-13T02:27:32.460Z,997.38
2023-04-13T02:28:32.475Z,997.30
2023-04-13T02:29:32.456Z,997.28
2023-04-13T02:30:32.458Z,997.31
2023-04-13T02:31:32.489Z,997.29
2023-04-13T02:32:32.467Z,997.33
2023-04-13T02:33:32.555Z,997.32
2023-04-13T02:34:32.453Z,997.31
2023-04-13T02:35:33.937Z,997.34
2023-04-13T02:36:32.444Z,997.32
2023-04-13T02:37:32.490Z,997.36
2023-04-13T02:38:32.443Z,997.30
2023-04-13T02:39:32.433Z,997.28
2023-04-13T02:40:32.461Z,997.26
2023-04-13T02:41:32.427Z,997.26
2023-04-13T02:42:32.433Z,997.28
2023-04-13T02:43:32.435Z,997.27
2023-04-13T02:44:32.439Z,997.25
2023-04-13T02:45:32.442Z,997.26
2023-04-13T02:46:33.135Z,997.25
2023-04-13T02:47:32.429Z,997.22
2023-04-13T02:48:32.424Z,997.28
2023-04-13T02:49:32.412Z,997.30
2023-04-13T02:50:32.422Z,997.28
2023-04-13T02:51:32.409Z,997.27
2023-04-13T02:52:32.431Z,997.30
2023-04-13T02:53:32.405Z,997.25
2023-04-13T02:54:32.408Z,997.26
2023-04-13T02:55:32.397Z,997.24
2023-04-13T02:56:32.428Z,997.27
2023-04-13T02:57:32.394Z,997.22
2023-04-13T02:58:32.421Z,997.16
2023-04-13T02:59:32.398Z,997.18
2023-04-13T03:00:32.406Z,997.17
2023-04-13T03:01:32.443Z,997.24
2023-04-13T03:02:32.476Z,997.21
2023-04-13T03:03:32.381Z,997.27
2023-04-13T03:04:32.402Z,997.30
2023-04-13T03:05:32.375Z,997.36
2023-04-13T03:06:32.386Z,997.35
2023-04-13T03:07:32.375Z,997.38
2023-04-13T03:08:32.374Z,997.38
2023-04-13T03:09:32.371Z,997.37
2023-04-13T03:10:32.375Z,997.36
2023-04-13T03:11:32.365Z,997.33
2023-04-13T03:12:32.391Z,997.35
2023-04-13T03:13:32.686Z,997.38
2023-04-13T03:14:32.371Z,997.45
2023-04-13T03:15:32.374Z,997.48
2023-04-13T03:16:32.367Z,997.54
2023-04-13T03:17:32.361Z,997.55
2023-04-13T03:18:32.355Z,997.55
2023-04-13T03:19:32.363Z,997.59
2023-04-13T03:20:32.352Z,997.63
2023-04-13T03:21:32.346Z,997.70
2023-04-13T03:22:32.349Z,997.60
2023-04-13T03:23:32.345Z,997.60
2023-04-13T03:24:32.354Z,997.61
2023-04-13T03:25:33.913Z,997.59
2023-04-13T03:26:32.339Z,997.63
2023-04-13T03:27:32.343Z,997.63
2023-04-13T03:28:32.360Z,997.65
2023-04-13T03:29:32.333Z,997.69
2023-04-13T03:30:32.341Z,997.70
2023-04-13T03:31:32.423Z,997.71
2023-04-13T03:32:32.378Z,997.70
2023-04-13T03:33:32.322Z,997.72
2023-04-13T03:34:32.327Z,997.67
2023-04-13T03:35:32.332Z,997.67
2023-04-13T03:36:32.339Z,997.67
2023-04-13T03:37:32.347Z,997.63
2023-04-13T03:38:32.314Z,997.67
2023-04-13T03:39:32.315Z,997.65
2023-04-13T03:40:32.311Z,997.67
2023-04-13T03:41:32.309Z,997.69
2023-04-13T03:42:32.311Z,997.70
2023-04-13T03:43:32.308Z,997.69
2023-04-13T03:44:32.329Z,997.70
2023-04-13T03:45:32.298Z,997.74
2023-04-13T03:46:32.307Z,997.73
2023-04-13T03:47:32.327Z,997.67
2023-04-13T03:48:32.295Z,997.64
2023-04-13T03:49:32.297Z,997.67
2023-04-13T03:50:32.294Z,997.64
2023-04-13T03:51:32.284Z,997.68
2023-04-13T03:52:32.293Z,997.70
2023-04-13T03:53:32.285Z,997.74
2023-04-13T03:54:32.287Z,997.71
2023-04-13T03:55:32.278Z,997.70
2023-04-13T03:56:32.272Z,997.74
2023-04-13T03:57:32.282Z,997.73
2023-04-13T03:58:32.271Z,997.76
2023-04-13T03:59:32.279Z,997.78
2023-04-13T04:00:32.291Z,997.78
2023-04-13T04:01:32.265Z,997.78
2023-04-13T04:02:32.362Z,997.82
2023-04-13T04:03:32.408Z,997.86
2023-04-13T04:04:32.297Z,997.92
2023-04-13T04:05:32.257Z,997.92
2023-04-13T04:06:32.251Z,997.94
2023-04-13T04:07:32.257Z,997.93
2023-04-13T04:08:32.245Z,997.97
2023-04-13T04:09:32.251Z,997.99
2023-04-13T04:10:32.244Z,998.02
2023-04-13T04:11:32.247Z,998.04
2023-04-13T04:12:32.247Z,998.04
2023-04-13T04:13:32.240Z,998.02
2023-04-13T04:14:32.230Z,998.01
2023-04-13T04:15:32.237Z,998.01
2023-04-13T04:16:32.266Z,998.04
2023-04-13T04:17:32.257Z,998.07
2023-04-13T04:18:32.221Z,998.05
2023-04-13T04:19:32.228Z,998.10
2023-04-13T04:20:32.224Z,998.06
2023-04-13T04:21:32.218Z,998.11
2023-04-13T04:22:32.219Z,998.13
2023-04-13T04:23:32.219Z,998.16
2023-04-13T04:24:32.213Z,998.16
2023-04-13T04:25:32.217Z,998.18
2023-04-13T04:26:32.213Z,998.18
2023-04-13T04:27:32.206Z,998.24
2023-04-13T04:28:32.203Z,998.26
2023-04-13T04:29:32.207Z,998.26
2023-04-13T04:30:32.199Z,998.26
2023-04-13T04:31:32.603Z,998.24
2023-04-13T04:32:32.290Z,998.24
2023-04-13T04:33:32.193Z,998.20
2023-04-13T04:34:32.204Z,998.26
2023-04-13T04:35:32.191Z,998.29
2023-04-13T04:36:32.191Z,998.28
2023-04-13T04:37:32.190Z,998.32
2023-04-13T04:38:32.181Z,998.30
2023-04-13T04:39:32.199Z,998.30
2023-04-13T04:40:32.200Z,998.31
2023-04-13T04:41:32.201Z,998.39
2023-04-13T04:42:32.179Z,998.39
2023-04-13T04:43:32.205Z,998.46
2023-04-13T04:44:32.169Z,998.48
2023-04-13T04:45:32.202Z,998.51
2023-04-13T04:46:32.166Z,998.53
2023-04-13T04:47:32.202Z,998.58
2023-04-13T04:48:32.243Z,998.56
2023-04-13T04:49:32.165Z,998.54
2023-04-13T04:50:32.155Z,998.59
2023-04-13T04:51:32.250Z,998.54
2023-04-13T04:52:32.159Z,998.53
2023-04-13T04:53:32.158Z,998.48
2023-04-13T04:54:32.148Z,998.45
2023-04-13T04:55:32.152Z,998.49
2023-04-13T04:56:32.169Z,998.52
2023-04-13T04:57:32.174Z,998.51
2023-04-13T04:58:32.188Z,998.48
2023-04-13T04:59:32.141Z,998.42
2023-04-13T05:00:32.178Z,998.47
2023-04-13T05:01:32.273Z,998.40
2023-04-13T05:02:32.305Z,998.37
2023-04-13T05:03:32.232Z,998.38
2023-04-13T05:04:32.206Z,998.37
2023-04-13T05:05:32.259Z,998.36
2023-04-13T05:06:32.143Z,998.33
2023-04-13T05:07:32.206Z,998.32
2023-04-13T05:08:32.217Z,998.36
2023-04-13T05:09:32.125Z,998.33
2023-04-13T05:10:32.134Z,998.37
2023-04-13T05:11:32.117Z,998.42
2023-04-13T05:12:32.115Z,998.45
2023-04-13T05:13:32.114Z,998.45
2023-04-13T05:14:32.130Z,998.41
2023-04-13T05:15:32.128Z,998.35
2023-04-13T05:16:32.262Z,998.33
2023-04-13T05:17:32.135Z,998.36
2023-04-13T05:18:32.110Z,998.39
2023-04-13T05:19:32.107Z,998.40
2023-04-13T05:20:32.122Z,998.38
2023-04-13T05:21:32.106Z,998.39
2023-04-13T05:22:32.093Z,998.42
2023-04-13T05:23:32.093Z,998.46
2023-04-13T05:24:32.088Z,998.56
2023-04-13T05:25:32.087Z,998.58
2023-04-13T05:26:32.081Z,998.68
2023-04-13T05:27:32.087Z,998.73
2023-04-13T05:28:32.082Z,998.79
2023-04-13T05:29:32.077Z,998.83
2023-04-13T05:30:32.078Z,998.80
2023-04-13T05:31:32.112Z,998.77
2023-04-13T05:32:32.087Z,998.78
2023-04-13T05:33:32.071Z,998.80
2023-04-13T05:34:32.063Z,998.81
2023-04-13T05:35:32.084Z,998.80
2023-04-13T05:36:32.101Z,998.76
2023-04-13T05:37:32.060Z,998.74
2023-04-13T05:38:32.055Z,998.71
2023-04-13T05:39:32.065Z,998.77
2023-04-13T05:40:32.065Z,998.83
2023-04-13T05:41:32.058Z,998.80
2023-04-13T05:42:32.059Z,998.80
2023-04-13T05:43:32.053Z,998.79
2023-04-13T05:44:32.048Z,998.76
2023-04-13T05:45:32.064Z,998.80
2023-04-13T05:46:32.033Z,998.84
2023-04-13T05:47:32.102Z,998.90
2023-04-13T05:48:34.249Z,998.93
2023-04-13T05:49:32.032Z,998.91
2023-04-13T05:50:32.057Z,998.88
2023-04-13T05:51:32.037Z,998.89
2023-04-13T05:52:32.041Z,998.92
2023-04-13T05:53:32.023Z,999.01
2023-04-13T05:54:32.023Z,999.08
2023-04-13T05:55:32.023Z,999.06
2023-04-13T05:56:32.018Z,999.08
2023-04-13T05:57:32.012Z,999.04
2023-04-13T05:58:32.008Z,999.06
2023-04-13T05:59:32.012Z,999.05
2023-04-13T06:00:32.011Z,999.06
2023-04-13T06:01:32.008Z,999.11
2023-04-13T06:02:32.234Z,999.09
2023-04-13T06:03:32.252Z,999.14
2023-04-13T06:04:32.208Z,999.14
2023-04-13T06:05:31.999Z,999.16
2023-04-13T06:06:31.998Z,999.14
2023-04-13T06:07:31.994Z,999.18
2023-04-13T06:08:32.011Z,999.22
2023-04-13T06:09:31.992Z,999.24
2023-04-13T06:10:31.999Z,999.31
2023-04-13T06:11:31.988Z,999.35
2023-04-13T06:12:31.988Z,999.38
2023-04-13T06:13:31.980Z,999.40
2023-04-13T06:14:31.979Z,999.43
2023-04-13T06:15:31.992Z,999.43
2023-04-13T06:16:32.046Z,999.44
2023-04-13T06:17:31.992Z,999.40
2023-04-13T06:18:31.977Z,999.47
2023-04-13T06:19:31.991Z,999.48
2023-04-13T06:20:31.971Z,999.45
2023-04-13T06:21:32.000Z,999.42
2023-04-13T06:22:31.975Z,999.47
2023-04-13T06:23:31.964Z,999.49
2023-04-13T06:24:31.986Z,999.50
2023-04-13T06:25:31.958Z,999.56
2023-04-13T06:26:31.960Z,999.55
2023-04-13T06:27:31.962Z,999.51
2023-04-13T06:28:31.962Z,999.51
2023-04-13T06:29:31.956Z,999.51
2023-04-13T06:30:31.983Z,999.48
2023-04-13T06:31:32.012Z,999.52
2023-04-13T06:32:31.971Z,999.55
2023-04-13T06:33:31.962Z,999.63
2023-04-13T06:34:31.974Z,999.59
2023-04-13T06:35:31.946Z,999.66
2023-04-13T06:36:31.955Z,999.65
2023-04-13T06:37:31.933Z,999.69
2023-04-13T06:38:31.948Z,999.68
2023-04-13T06:39:33.013Z,999.66
2023-04-13T06:40:31.954Z,999.68
2023-04-13T06:41:31.939Z,999.74
2023-04-13T06:42:31.923Z,999.76
2023-04-13T06:43:31.935Z,999.75
2023-04-13T06:44:31.940Z,999.82
2023-04-13T06:45:31.921Z,999.84
2023-04-13T06:46:31.951Z,999.84
2023-04-13T06:47:31.957Z,999.88
2023-04-13T06:48:31.912Z,999.91
2023-04-13T06:49:31.912Z,999.91
2023-04-13T06:50:31.917Z,999.95
2023-04-13T06:51:31.914Z,999.95
2023-04-13T06:52:31.906Z,999.97
2023-04-13T06:53:31.924Z,999.99
2023-04-13T06:54:31.903Z,1000.00
2023-04-13T06:55:31.918Z,1000.00
2023-04-13T06:56:31.923Z,1000.04
2023-04-13T06:57:31.924Z,1000.07
2023-04-13T06:58:31.901Z,1000.13
2023-04-13T06:59:31.895Z,1000.11
2023-04-13T07:00:31.960Z,1000.15
2023-04-13T07:01:32.034Z,1000.18
2023-04-13T07:02:32.047Z,1000.16
2023-04-13T07:03:32.160Z,1000.15
2023-04-13T07:04:33.925Z,1000.20
2023-04-13T07:05:31.887Z,1000.18
2023-04-13T07:06:31.890Z,1000.19
2023-04-13T07:07:31.890Z,1000.18
2023-04-13T07:08:31.884Z,1000.26
2023-04-13T07:09:31.903Z,1000.27
2023-04-13T07:10:31.882Z,1000.26
2023-04-13T07:11:31.912Z,1000.25
2023-04-13T07:12:32.102Z,1000.19
2023-04-13T07:13:31.886Z,1000.15
2023-04-13T07:14:31.883Z,1000.15
2023-04-13T07:15:31.893Z,1000.09
2023-04-13T07:16:31.983Z,1000.03
2023-04-13T07:17:31.884Z,1000.10
2023-04-13T07:18:31.876Z,1000.04
2023-04-13T07:19:31.870Z,1000.04
2023-04-13T07:20:31.870Z,1000.02
2023-04-13T07:21:31.877Z,999.98
2023-04-13T07:22:31.862Z,999.99
2023-04-13T07:23:31.862Z,999.94
2023-04-13T07:24:31.851Z,999.99
2023-04-13T07:25:31.857Z,1000.04
2023-04-13T07:26:31.860Z,1000.09
2023-04-13T07:27:31.859Z,1000.15
2023-04-13T07:28:31.870Z,1000.15
2023-04-13T07:29:31.849Z,1000.17
2023-04-13T07:30:31.875Z,1000.20
2023-04-13T07:31:31.875Z,1000.18
2023-04-13T07:32:31.908Z,1000.17
2023-04-13T07:33:31.847Z,1000.09
2023-04-13T07:34:31.861Z,1000.11
2023-04-13T07:35:31.854Z,1000.11
2023-04-13T07:36:31.845Z,1000.07
2023-04-13T07:37:31.860Z,1000.07
2023-04-13T07:38:31.833Z,1000.10
2023-04-13T07:39:31.845Z,1000.08
2023-04-13T07:40:31.828Z,1000.14
2023-04-13T07:41:31.833Z,1000.12
2023-04-13T07:42:31.843Z,1000.18
2023-04-13T07:43:31.830Z,1000.27
2023-04-13T07:44:31.841Z,1000.35
2023-04-13T07:45:31.824Z,1000.42
2023-04-13T07:46:31.869Z,1000.53
2023-04-13T07:47:31.834Z,1000.61
2023-04-13T07:48:31.822Z,1000.50
2023-04-13T07:49:31.817Z,1000.44
2023-04-13T07:50:31.816Z,1000.35
2023-04-13T07:51:31.811Z,1000.35
2023-04-13T07:52:31.806Z,1000.33
2023-04-13T07:53:31.811Z,1000.31
2023-04-13T07:54:31.814Z,1000.30
2023-04-13T07:55:31.811Z,1000.24
2023-04-13T07:56:31.824Z,1000.27
2023-04-13T07:57:31.814Z,1000.28
2023-04-13T07:58:31.803Z,1000.34
2023-04-13T07:59:31.815Z,1000.38
2023-04-13T08:00:31.831Z,1000.41
2023-04-13T08:01:31.813Z,1000.39
2023-04-13T08:02:31.942Z,1000.47
2023-04-13T08:03:31.956Z,1000.41
2023-04-13T08:04:32.048Z,1000.38
2023-04-13T08:05:31.907Z,1000.40
2023-04-13T08:06:31.783Z,1000.47
2023-04-13T08:07:31.791Z,1000.41
2023-04-13T08:08:31.786Z,1000.46
2023-04-13T08:09:31.784Z,1000.50
2023-04-13T08:10:31.789Z,1000.52
2023-04-13T08:11:31.780Z,1000.57
2023-04-13T08:12:31.783Z,1000.57
2023-04-13T08:13:31.776Z,1000.53
2023-04-13T08:14:31.782Z,1000.62
2023-04-13T08:15:31.780Z,1000.58
2023-04-13T08:16:31.899Z,1000.58
2023-04-13T08:17:31.830Z,1000.63
2023-04-13T08:18:31.774Z,1000.72
2023-04-13T08:19:31.778Z,1000.71
2023-04-13T08:20:31.789Z,1000.77
2023-04-13T08:21:31.772Z,1000.82
2023-04-13T08:22:31.771Z,1000.96
2023-04-13T08:23:31.773Z,1000.91
2023-04-13T08:24:31.931Z,1001.33
2023-04-13T08:25:31.762Z,1001.59
2023-04-13T08:26:31.776Z,1001.61
2023-04-13T08:27:31.797Z,1002.21
2023-04-13T08:28:32.593Z,1001.97
2023-04-13T08:29:31.759Z,1001.87
2023-04-13T08:30:31.772Z,1001.71
2023-04-13T08:31:31.777Z,1002.28
2023-04-13T08:32:31.847Z,1002.15
2023-04-13T08:33:31.754Z,1001.80
2023-04-13T08:34:31.758Z,1001.56
2023-04-13T08:35:31.763Z,1001.46
2023-04-13T08:36:31.752Z,1001.39
2023-04-13T08:37:31.773Z,1001.09
2023-04-13T08:38:31.757Z,1001.17
2023-04-13T08:39:31.756Z,1001.10
2023-04-13T08:40:31.760Z,1001.12
2023-04-13T08:41:31.757Z,1001.08
2023-04-13T08:42:31.769Z,1001.01
2023-04-13T08:43:31.754Z,1001.06
2023-04-13T08:44:31.751Z,1001.05
2023-04-13T08:45:31.760Z,1000.97
2023-04-13T08:46:31.755Z,1000.97
2023-04-13T08:47:31.843Z,1000.94
2023-04-13T08:48:39.245Z,1000.99
2023-04-13T08:49:31.742Z,1000.99
2023-04-13T08:50:31.745Z,1001.02
2023-04-13T08:51:31.745Z,1001.06
2023-04-13T08:52:31.736Z,1001.08
2023-04-13T08:53:31.736Z,1001.13
2023-04-13T08:54:31.745Z,1001.05
2023-04-13T08:55:31.738Z,1001.03
2023-04-13T08:56:42.675Z,1001.02
2023-04-13T08:57:31.746Z,1001.02
2023-04-13T08:58:31.730Z,1001.01
2023-04-13T08:59:31.732Z,1001.00
2023-04-13T09:00:31.732Z,1001.01
2023-04-13T09:01:31.750Z,1000.99
2023-04-13T09:02:31.863Z,1000.96
2023-04-13T09:03:31.841Z,1000.94
2023-04-13T09:04:32.130Z,1001.01
2023-04-13T09:05:31.732Z,1001.02
2023-04-13T09:06:31.727Z,1001.09
2023-04-13T09:07:31.723Z,1001.11
2023-04-13T09:08:31.727Z,1001.17
2023-04-13T09:09:31.721Z,1001.19
2023-04-13T09:10:31.753Z,1001.16
2023-04-13T09:11:31.718Z,1001.24
2023-04-13T09:12:31.722Z,1001.37
2023-04-13T09:13:31.728Z,1001.38
2023-04-13T09:14:31.729Z,1001.33
2023-04-13T09:15:31.732Z,1001.36
2023-04-13T09:16:31.735Z,1001.46
2023-04-13T09:17:31.737Z,1001.56
2023-04-13T09:18:31.718Z,1001.51
2023-04-13T09:19:31.726Z,1001.43
2023-04-13T09:20:31.778Z,1001.41
2023-04-13T09:21:31.715Z,1001.46
2023-04-13T09:22:31.727Z,1001.44
2023-04-13T09:23:31.759Z,1001.47
2023-04-13T09:24:31.716Z,1001.48
2023-04-13T09:25:31.720Z,1001.49
2023-04-13T09:26:31.720Z,1001.54
2023-04-13T09:27:31.717Z,1001.44
2023-04-13T09:28:31.722Z,1001.42
2023-04-13T09:29:31.716Z,1001.33
2023-04-13T09:30:31.720Z,1001.35
2023-04-13T09:31:31.805Z,1001.34
2023-04-13T09:32:31.761Z,1001.43
2023-04-13T09:33:31.723Z,1001.27
2023-04-13T09:34:31.717Z,1001.27
2023-04-13T09:35:31.725Z,1001.26
2023-04-13T09:36:31.758Z,1001.38
2023-04-13T09:37:31.716Z,1001.19
2023-04-13T09:38:31.727Z,1001.19
2023-04-13T09:39:31.724Z,1001.19
2023-04-13T09:40:31.772Z,1001.24
2023-04-13T09:41:31.719Z,1001.16
2023-04-13T09:42:31.721Z,1001.17
2023-04-13T09:43:31.718Z,1001.16
2023-04-13T09:44:31.720Z,1001.11
2023-04-13T09:45:31.714Z,1001.20
2023-04-13T09:46:31.784Z,1001.30
2023-04-13T09:47:31.761Z,1001.31
2023-04-13T09:48:31.719Z,1001.36
2023-04-13T09:49:31.755Z,1001.34
2023-04-13T09:50:31.719Z,1001.49
2023-04-13T09:51:31.720Z,1001.44
2023-04-13T09:52:31.755Z,1001.50
2023-04-13T09:53:31.714Z,1001.67
2023-04-13T09:54:31.716Z,1001.68
2023-04-13T09:55:31.712Z,1001.91
2023-04-13T09:56:31.722Z,1001.90
2023-04-13T09:57:31.741Z,1001.96
2023-04-13T09:58:31.723Z,1002.05
2023-04-13T09:59:31.718Z,1002.11
2023-04-13T10:00:31.723Z,1002.03
2023-04-13T10:01:31.763Z,1002.11
2023-04-13T10:02:31.830Z,1002.07
2023-04-13T10:03:31.791Z,1001.96
2023-04-13T10:04:31.741Z,1001.61
2023-04-13T10:05:31.758Z,1001.48
2023-04-13T10:06:31.720Z,1001.46
2023-04-13T10:07:31.722Z,1001.47
2023-04-13T10:08:38.188Z,1001.57
2023-04-13T10:09:31.723Z,1001.47
2023-04-13T10:10:31.718Z,1001.44
2023-04-13T10:11:31.720Z,1001.50
2023-04-13T10:12:31.721Z,1001.51
2023-04-13T10:13:31.724Z,1001.60
2023-04-13T10:14:31.718Z,1001.48
2023-04-13T10:15:31.730Z,1001.53
2023-04-13T10:16:31.768Z,1001.64
2023-04-13T10:17:31.820Z,1001.45
2023-04-13T10:18:31.812Z,1001.50
2023-04-13T10:19:31.718Z,1001.43
2023-04-13T10:20:32.207Z,1001.42
2023-04-13T10:21:31.722Z,1001.38
2023-04-13T10:22:31.717Z,1001.45
2023-04-13T10:23:31.718Z,1001.46
2023-04-13T10:24:31.745Z,1001.60
2023-04-13T10:25:33.524Z,1001.59
2023-04-13T10:26:31.719Z,1001.58
2023-04-13T10:27:31.723Z,1001.61
2023-04-13T10:28:31.720Z,1001.55
2023-04-13T10:29:31.717Z,1001.52
2023-04-13T10:30:31.725Z,1001.51
2023-04-13T10:31:31.753Z,1001.54
2023-04-13T10:32:31.743Z,1001.46
2023-04-13T10:33:31.727Z,1001.49
2023-04-13T10:34:31.724Z,1001.44
2023-04-13T10:35:31.723Z,1001.38
2023-04-13T10:36:31.725Z,1001.39
2023-04-13T10:37:31.729Z,1001.42
2023-04-13T10:38:31.723Z,1001.47
2023-04-13T10:39:31.806Z,1001.58
2023-04-13T10:40:31.745Z,1001.49
2023-04-13T10:41:31.832Z,1001.56
2023-04-13T10:42:36.676Z,1001.51
2023-04-13T10:43:31.753Z,1001.56
2023-04-13T10:44:31.741Z,1001.63
2023-04-13T10:45:31.728Z,1001.64
2023-04-13T10:46:31.762Z,1001.66
2023-04-13T10:47:31.769Z,1001.62
2023-04-13T10:48:31.722Z,1001.65
2023-04-13T10:49:31.735Z,1001.60
2023-04-13T10:50:31.731Z,1001.57
2023-04-13T10:51:31.723Z,1001.57
2023-04-13T10:52:31.729Z,1001.55
2023-04-13T10:53:31.720Z,1001.62
2023-04-13T10:54:31.729Z,1001.65
2023-04-13T10:55:31.737Z,1001.65
2023-04-13T10:56:31.798Z,1001.52
2023-04-13T10:57:31.725Z,1001.61
2023-04-13T10:58:33.042Z,1001.71
2023-04-13T10:59:32.685Z,1001.64
2023-04-13T11:00:42.272Z,1001.76
2023-04-13T11:01:31.728Z,1001.71
2023-04-13T11:02:32.875Z,1001.70
2023-04-13T11:03:32.021Z,1001.65
2023-04-13T11:04:31.875Z,1001.76
2023-04-13T11:05:31.737Z,1001.60
2023-04-13T11:06:31.733Z,1001.63
2023-04-13T11:07:31.746Z,1001.75
2023-04-13T11:08:31.763Z,1001.77
2023-04-13T11:09:31.742Z,1001.72
2023-04-13T11:10:31.737Z,1001.75
2023-04-13T11:11:31.729Z,1001.79
2023-04-13T11:12:31.765Z,1001.73
2023-04-13T11:13:31.740Z,1001.77
2023-04-13T11:14:31.743Z,1001.83
2023-04-13T11:15:31.737Z,1001.71
2023-04-13T11:16:31.820Z,1001.72
2023-04-13T11:17:31.780Z,1001.66
2023-04-13T11:18:31.740Z,1001.71
2023-04-13T11:19:31.743Z,1001.66
2023-04-13T11:20:31.735Z,1001.66
2023-04-13T11:21:31.759Z,1001.71
2023-04-13T11:22:31.739Z,1001.72
2023-04-13T11:23:31.739Z,1001.71
2023-04-13T11:24:31.743Z,1001.68
2023-04-13T11:25:31.740Z,1001.71
2023-04-13T11:26:31.739Z,1001.68
2023-04-13T11:27:31.735Z,1001.71
2023-04-13T11:28:31.770Z,1001.61
2023-04-13T11:29:31.749Z,1001.67
2023-04-13T11:30:31.748Z,1001.66
2023-04-13T11:31:31.745Z,1001.78
2023-04-13T11:32:31.794Z,1001.80
2023-04-13T11:33:31.742Z,1001.78
2023-04-13T11:34:31.746Z,1001.78
2023-04-13T11:35:31.741Z,1001.86
2023-04-13T11:36:31.734Z,1001.81
2023-04-13T11:37:31.740Z,1001.86
2023-04-13T11:38:31.743Z,1001.81
2023-04-13T11:39:31.735Z,1001.84
2023-04-13T11:40:31.744Z,1001.78
2023-04-13T11:41:31.735Z,1001.78
2023-04-13T11:42:31.737Z,1001.77
2023-04-13T11:43:31.738Z,1001.76
2023-04-13T11:44:31.763Z,1001.77
2023-04-13T11:45:31.737Z,1001.77
2023-04-13T11:46:31.809Z,1001.79
2023-04-13T11:47:31.766Z,1001.79
2023-04-13T11:48:31.740Z,1001.90
2023-04-13T11:49:31.736Z,1001.95
2023-04-13T11:50:31.742Z,1001.95
2023-04-13T11:51:31.735Z,1001.96
2023-04-13T11:52:31.733Z,1001.96
2023-04-13T11:53:31.729Z,1001.96
2023-04-13T11:54:31.735Z,1001.85
2023-04-13T11:55:34.759Z,1001.82
2023-04-13T11:56:31.739Z,1001.88
2023-04-13T11:57:31.731Z,1001.90
2023-04-13T11:58:31.733Z,1001.96
2023-04-13T11:59:31.743Z,1001.90
2023-04-13T12:00:31.761Z,1001.99
2023-04-13T12:01:34.401Z,1001.91
2023-04-13T12:02:33.912Z,1001.99
2023-04-13T12:03:46.960Z,1001.92
2023-04-13T12:04:31.867Z,1001.92
2023-04-13T12:05:32.684Z,1001.84
2023-04-13T12:06:31.919Z,1001.95
2023-04-13T12:07:32.434Z,1001.96
2023-04-13T12:08:32.058Z,1001.94
2023-04-13T12:09:53.479Z,1001.97
2023-04-13T12:10:40.198Z,1002.02
2023-04-13T12:12:51.483Z,1002.04
2023-04-13T12:13:36.165Z,1001.97
2023-04-13T12:14:54.129Z,1001.94
2023-04-13T12:15:43.477Z,1002.08
2023-04-13T12:17:02.008Z,1001.98
2023-04-13T12:19:33.013Z,1001.99
2023-04-13T12:20:31.774Z,1001.97
2023-04-13T12:21:31.825Z,1001.96